Time;durP1;ratioP1;P1;durP2;ratioP2;P2;SDS_P1;SDS_P2;PMS_P1;PMS_P2;Temp;Humidity;BMP_temperature;BMP_pressure;BME280_temperature;BME280_humidity;BME280_pressure;Samples;Min_cycle;Max_cycle;Signal;HPM_P1;HPM_P2
2023/11/01 00:02:03;;;;;;;3.30;1.27;;;;;;;11.68;100.00;95818.81;5037851;28;20204;-72
2023/11/01 00:04:30;;;;;;;1.90;1.10;;;;;;;11.89;100.00;95821.38;5037296;28;20201;-71
2023/11/01 00:06:58;;;;;;;2.80;1.17;;;;;;;11.77;100.00;95812.38;5038053;28;21145;-71
2023/11/01 00:09:24;;;;;;;1.33;1.00;;;;;;;11.68;100.00;95821.47;5037501;28;20205;-71
2023/11/01 00:11:51;;;;;;;1.43;1.00;;;;;;;11.71;100.00;95815.78;5037425;28;20201;-71
2023/11/01 00:14:17;;;;;;;1.83;1.23;;;;;;;11.72;100.00;95812.13;5037984;28;20197;-71
2023/11/01 00:16:44;;;;;;;1.87;1.30;;;;;;;11.59;100.00;95806.78;5037355;28;20240;-71
2023/11/01 00:19:10;;;;;;;1.20;1.00;;;;;;;11.68;100.00;95806.47;5037686;28;20205;-71
2023/11/01 00:21:40;;;;;;;1.10;1.00;;;;;;;11.78;100.00;95800.81;5036955;28;20205;-71
2023/11/01 00:24:07;;;;;;;2.13;1.30;;;;;;;11.82;100.00;95805.50;5037993;28;20209;-71
2023/11/01 00:26:33;;;;;;;1.47;0.97;;;;;;;11.82;100.00;95804.69;5037579;28;20228;-71
2023/11/01 00:29:00;;;;;;;1.03;0.93;;;;;;;11.79;100.00;95810.38;5038193;28;20209;-71
2023/11/01 00:31:26;;;;;;;5.83;1.63;;;;;;;11.79;100.00;95805.91;5036762;28;20216;-71
2023/11/01 00:33:53;;;;;;;1.50;1.00;;;;;;;11.71;100.00;95813.16;5037547;28;20201;-71
2023/11/01 00:36:19;;;;;;;1.17;1.00;;;;;;;11.91;100.00;95814.09;5037160;28;20225;-71
2023/11/01 00:38:47;;;;;;;1.20;0.90;;;;;;;12.02;100.00;95806.44;5037495;28;20304;-71
2023/11/01 00:41:14;;;;;;;0.93;0.83;;;;;;;11.78;100.00;95806.91;5036642;28;20216;-71
2023/11/01 00:43:41;;;;;;;2.90;1.43;;;;;;;11.90;100.00;95800.06;5037127;28;20198;-72
2023/11/01 00:46:07;;;;;;;4.07;1.40;;;;;;;11.83;100.00;95801.84;5036961;28;20225;-71
2023/11/01 00:48:34;;;;;;;2.27;0.97;;;;;;;11.89;100.00;95800.25;5036328;28;20209;-71
2023/11/01 00:51:00;;;;;;;1.53;0.87;;;;;;;11.87;100.00;95797.00;5037060;28;20205;-71
2023/11/01 00:53:27;;;;;;;2.27;0.80;;;;;;;11.95;100.00;95799.47;5036641;28;20205;-71
2023/11/01 00:55:55;;;;;;;0.80;0.80;;;;;;;12.17;100.00;95807.13;5036989;28;20225;-71
2023/11/01 00:58:22;;;;;;;2.63;1.13;;;;;;;12.06;100.00;95805.00;5036256;28;20665;-71
2023/11/01 01:00:49;;;;;;;1.63;1.00;;;;;;;11.94;100.00;95813.69;5036632;28;20296;-71
2023/11/01 01:03:16;;;;;;;1.70;0.90;;;;;;;12.04;100.00;95806.22;5036775;28;20205;-71
2023/11/01 01:05:42;;;;;;;1.20;1.07;;;;;;;12.06;100.00;95809.50;5036624;28;20272;-71
2023/11/01 01:08:09;;;;;;;1.07;0.80;;;;;;;11.85;100.00;95809.56;5036588;28;20259;-71
2023/11/01 01:10:35;;;;;;;0.67;0.67;;;;;;;11.95;100.00;95800.31;5037067;28;20220;-71
2023/11/01 01:13:03;;;;;;;0.70;0.70;;;;;;;12.12;100.00;95803.41;5035837;28;20197;-71
2023/11/01 01:15:30;;;;;;;3.67;1.10;;;;;;;11.92;100.00;95797.25;5035969;28;20232;-71
2023/11/01 01:17:57;;;;;;;0.97;0.87;;;;;;;11.95;100.00;95794.19;5037107;28;20198;-71
2023/11/01 01:20:24;;;;;;;0.70;0.70;;;;;;;12.08;100.00;95800.38;5036863;28;20201;-71
2023/11/01 01:22:50;;;;;;;2.17;0.90;;;;;;;11.96;100.00;95790.56;5035073;28;20213;-71
2023/11/01 01:25:17;;;;;;;1.17;1.07;;;;;;;12.03;100.00;95786.09;5036799;28;20213;-71
2023/11/01 01:27:44;;;;;;;1.40;0.67;;;;;;;12.04;100.00;95779.81;5036561;28;20208;-71
2023/11/01 01:30:13;;;;;;;1.20;0.90;;;;;;;12.26;100.00;95775.03;5035599;28;21318;-71
2023/11/01 01:32:40;;;;;;;1.63;0.90;;;;;;;12.14;100.00;95775.00;5035010;28;20298;-71
2023/11/01 01:35:07;;;;;;;1.50;0.60;;;;;;;12.11;100.00;95775.41;5036855;28;20366;-71
2023/11/01 01:37:34;;;;;;;0.90;0.80;;;;;;;12.10;100.00;95776.41;5035386;28;20201;-71
2023/11/01 01:40:00;;;;;;;0.73;0.50;;;;;;;12.01;100.00;95764.38;5036260;28;20197;-71
2023/11/01 01:42:27;;;;;;;0.90;0.63;;;;;;;12.01;100.00;95764.38;5035584;28;20232;-71
2023/11/01 01:44:53;;;;;;;0.80;0.80;;;;;;;12.05;100.00;95762.97;5036400;28;20221;-71
2023/11/01 01:47:21;;;;;;;2.23;0.70;;;;;;;11.94;100.00;95771.44;5035228;28;20201;-71
2023/11/01 01:49:49;;;;;;;0.90;0.80;;;;;;;12.02;100.00;95768.66;5036380;28;20232;-71
2023/11/01 01:52:16;;;;;;;0.60;0.60;;;;;;;11.93;100.00;95764.56;5035507;28;20204;-71
2023/11/01 01:54:43;;;;;;;0.90;0.70;;;;;;;11.84;100.00;95755.16;5035878;28;20205;-71
2023/11/01 01:57:10;;;;;;;0.73;0.67;;;;;;;11.98;100.00;95765.59;5036157;28;20760;-71
2023/11/01 01:59:37;;;;;;;0.83;0.70;;;;;;;11.93;100.00;95767.19;5035625;28;20311;-71
2023/11/01 02:02:04;;;;;;;0.70;0.70;;;;;;;11.91;100.00;95767.38;5035660;28;20288;-71
2023/11/01 02:04:32;;;;;;;1.67;0.70;;;;;;;12.02;100.00;95769.47;5035654;28;20216;-71
2023/11/01 02:06:59;;;;;;;0.80;0.80;;;;;;;11.89;100.00;95763.28;5036008;28;20201;-71
2023/11/01 02:09:25;;;;;;;1.87;0.70;;;;;;;11.77;100.00;95759.59;5034354;28;20201;-71
2023/11/01 02:11:52;;;;;;;2.77;0.70;;;;;;;11.81;100.00;95755.53;5035429;28;20216;-71
2023/11/01 02:14:21;;;;;;;0.90;0.80;;;;;;;11.87;100.00;95767.97;5035570;28;20201;-71
2023/11/01 02:16:47;;;;;;;2.17;0.87;;;;;;;11.96;100.00;95758.88;5035787;28;20239;-71
2023/11/01 02:19:16;;;;;;;1.73;0.60;;;;;;;12.03;100.00;95759.69;5035017;28;20205;-71
2023/11/01 02:21:44;;;;;;;0.53;0.53;;;;;;;11.96;100.00;95753.59;5035088;28;20217;-71
2023/11/01 02:24:12;;;;;;;3.27;1.13;;;;;;;11.74;100.00;95755.50;5035105;28;20212;-71
2023/11/01 02:26:39;;;;;;;0.80;0.80;;;;;;;11.85;100.00;95756.78;5035752;28;20255;-71
2023/11/01 02:29:05;;;;;;;0.60;0.60;;;;;;;11.86;100.00;95751.31;5035757;28;20200;-71
2023/11/01 02:31:32;;;;;;;1.00;0.70;;;;;;;11.88;100.00;95744.00;5034732;28;20980;-71
2023/11/01 02:33:58;;;;;;;0.50;0.50;;;;;;;11.71;100.00;95742.72;5035267;28;20207;-71
2023/11/01 02:36:25;;;;;;;0.60;0.60;;;;;;;11.73;100.00;95737.22;5035746;28;20316;-71
2023/11/01 02:38:51;;;;;;;0.67;0.67;;;;;;;11.65;100.00;95721.56;5035398;28;20972;-71
2023/11/01 02:41:20;;;;;;;1.10;0.60;;;;;;;11.78;100.00;95725.06;5035521;28;20223;-71
2023/11/01 02:43:46;;;;;;;1.00;0.67;;;;;;;11.61;100.00;95712.41;5039459;28;20212;-71
2023/11/01 02:46:13;;;;;;;0.60;0.60;;;;;;;11.60;100.00;95719.50;5039762;28;20605;-71
2023/11/01 02:48:39;;;;;;;0.77;0.70;;;;;;;11.67;100.00;95715.09;5039283;28;20205;-71
2023/11/01 02:51:06;;;;;;;1.77;1.10;;;;;;;11.63;100.00;95708.56;5039438;28;20215;-71
2023/11/01 02:53:32;;;;;;;1.87;0.70;;;;;;;11.38;100.00;95711.84;5038843;28;20205;-71
2023/11/01 02:55:59;;;;;;;0.60;0.50;;;;;;;11.39;100.00;95713.50;5039170;28;20221;-70
2023/11/01 02:58:28;;;;;;;1.67;1.17;;;;;;;11.66;100.00;95715.28;5039033;28;20209;-70
2023/11/01 03:00:55;;;;;;;3.03;0.70;;;;;;;11.58;100.00;95704.88;5039176;28;20213;-70
2023/11/01 03:03:21;;;;;;;1.77;0.60;;;;;;;11.55;100.00;95715.03;5038748;28;20207;-70
2023/11/01 03:05:48;;;;;;;1.03;0.63;;;;;;;11.49;100.00;95713.94;5038314;28;20218;-70
2023/11/01 03:08:14;;;;;;;0.87;0.70;;;;;;;11.42;100.00;95710.47;5039374;28;20197;-70
2023/11/01 03:10:41;;;;;;;0.77;0.67;;;;;;;11.52;100.00;95716.22;5038752;28;20232;-70
2023/11/01 03:13:08;;;;;;;0.63;0.63;;;;;;;11.35;100.00;95717.50;5038706;28;20205;-70
2023/11/01 03:15:37;;;;;;;1.97;0.83;;;;;;;11.71;100.00;95718.13;5038863;28;20312;-70
2023/11/01 03:18:04;;;;;;;1.53;0.80;;;;;;;11.49;100.00;95702.56;5039331;28;20767;-70
2023/11/01 03:20:31;;;;;;;3.03;1.10;;;;;;;11.54;100.00;95710.75;5038389;28;20242;-70
2023/11/01 03:22:57;;;;;;;2.67;0.90;;;;;;;11.57;100.00;95705.91;5038426;28;20676;-70
2023/11/01 03:25:24;;;;;;;0.97;0.70;;;;;;;11.56;100.00;95705.06;5039076;28;20217;-70
2023/11/01 03:27:50;;;;;;;5.40;0.97;;;;;;;11.49;100.00;95702.56;5038468;28;20212;-70
2023/11/01 03:30:17;;;;;;;1.37;0.93;;;;;;;11.55;100.00;95707.91;5038269;28;20197;-70
2023/11/01 03:32:45;;;;;;;0.70;0.70;;;;;;;11.52;100.00;95708.31;5037978;28;21188;-70
2023/11/01 03:35:11;;;;;;;3.67;0.80;;;;;;;11.47;100.00;95709.84;5035493;28;20243;-70
2023/11/01 03:37:38;;;;;;;0.83;0.80;;;;;;;11.61;100.00;95709.78;5036663;28;20225;-70
2023/11/01 03:40:06;;;;;;;1.03;0.80;;;;;;;11.44;100.00;95716.34;5037906;28;20212;-70
2023/11/01 03:42:32;;;;;;;1.27;0.83;;;;;;;11.49;100.00;95711.28;5036260;28;20205;-70
2023/11/01 03:44:59;;;;;;;1.67;0.80;;;;;;;11.57;100.00;95708.53;5036584;28;20236;-70
2023/11/01 03:47:27;;;;;;;1.23;0.73;;;;;;;11.68;100.00;95702.69;5037082;28;20700;-70
2023/11/01 03:49:55;;;;;;;0.80;0.80;;;;;;;11.68;100.00;95703.53;5037983;28;20204;-70
2023/11/01 03:52:22;;;;;;;0.60;0.60;;;;;;;11.69;100.00;95699.06;5035725;28;20699;-70
2023/11/01 03:54:49;;;;;;;0.70;0.67;;;;;;;11.64;100.00;95701.47;5036585;28;20587;-70
2023/11/01 03:57:16;;;;;;;0.57;0.57;;;;;;;11.61;100.00;95701.88;5037478;28;20225;-70
2023/11/01 03:59:43;;;;;;;1.83;0.97;;;;;;;11.55;100.00;95700.81;5036801;28;20219;-70
2023/11/01 04:02:09;;;;;;;0.63;0.60;;;;;;;11.54;100.00;95694.91;5036152;28;20208;-70
2023/11/01 04:04:36;;;;;;;1.30;0.87;;;;;;;11.47;100.00;95705.41;5037047;28;20278;-70
2023/11/01 04:07:04;;;;;;;3.20;0.80;;;;;;;11.50;100.00;95688.41;5036298;28;21241;-70
2023/11/01 04:09:30;;;;;;;0.97;0.77;;;;;;;11.45;100.00;95701.34;5037104;28;20201;-70
2023/11/01 04:11:57;;;;;;;1.13;0.80;;;;;;;11.21;100.00;95699.16;5036522;28;20201;-70
2023/11/01 04:14:23;;;;;;;1.93;0.97;;;;;;;11.01;100.00;95704.31;5036935;28;20216;-70
2023/11/01 04:16:50;;;;;;;0.90;0.73;;;;;;;11.05;100.00;95700.28;5036820;28;21087;-70
2023/11/01 04:19:17;;;;;;;0.77;0.73;;;;;;;11.08;100.00;95697.25;5036599;28;20207;-70
2023/11/01 04:21:43;;;;;;;0.93;0.70;;;;;;;10.93;100.00;95696.56;5035626;28;20781;-70
2023/11/01 04:24:11;;;;;;;0.63;0.50;;;;;;;11.14;100.00;95687.78;5036355;28;20208;-70
2023/11/01 04:26:38;;;;;;;2.30;0.70;;;;;;;10.93;100.00;95686.00;5036433;28;20221;-70
2023/11/01 04:29:05;;;;;;;0.87;0.57;;;;;;;11.05;100.00;95687.09;5036520;28;20205;-70
2023/11/01 04:31:31;;;;;;;0.97;0.60;;;;;;;11.02;100.00;95690.13;5036141;28;20205;-70
2023/11/01 04:33:58;;;;;;;1.02;0.90;;;;;;;10.87;100.00;95682.50;4998673;28;1074269;-70
2023/11/01 04:36:25;;;;;;;1.57;0.83;;;;;;;10.83;100.00;95683.88;5037653;28;20229;-70
2023/11/01 04:38:53;;;;;;;0.90;0.60;;;;;;;10.84;100.00;95678.44;5035824;28;20739;-70
2023/11/01 04:41:21;;;;;;;1.07;0.80;;;;;;;10.73;100.00;95672.88;5037067;28;20251;-70
2023/11/01 04:43:48;;;;;;;2.77;0.90;;;;;;;10.74;100.00;95672.66;5037148;28;20765;-70
2023/11/01 04:46:15;;;;;;;0.53;0.53;;;;;;;10.62;100.00;95662.88;5037539;28;20216;-70
2023/11/01 04:48:42;;;;;;;1.13;0.83;;;;;;;10.55;100.00;95664.63;5036541;28;20205;-70
2023/11/01 04:51:08;;;;;;;0.70;0.70;;;;;;;10.58;100.00;95665.06;5037715;28;20205;-70
2023/11/01 04:53:35;;;;;;;1.33;0.60;;;;;;;10.50;100.00;95662.56;5036252;28;20205;-70
2023/11/01 04:56:05;;;;;;;0.67;0.60;;;;;;;10.43;100.00;95671.41;5037650;28;20237;-70
2023/11/01 04:58:33;;;;;;;0.70;0.70;;;;;;;10.73;100.00;95659.69;5036908;28;20209;-70
2023/11/01 05:01:00;;;;;;;2.63;1.40;;;;;;;10.52;100.00;95652.63;5037031;28;20201;-70
2023/11/01 05:03:26;;;;;;;1.67;0.60;;;;;;;10.52;100.00;95659.75;5036582;28;20220;-70
2023/11/01 05:05:53;;;;;;;1.90;0.90;;;;;;;10.39;100.00;95655.16;5036600;28;20224;-70
2023/11/01 05:08:19;;;;;;;2.70;0.60;;;;;;;10.48;100.00;95640.06;5036925;28;20201;-70
2023/11/01 05:10:46;;;;;;;1.07;0.70;;;;;;;10.43;100.00;95639.81;5036747;28;20584;-70
2023/11/01 05:13:13;;;;;;;2.20;1.00;;;;;;;10.14;100.00;95649.69;5036424;28;20193;-70
2023/11/01 05:15:40;;;;;;;2.70;1.20;;;;;;;10.44;100.00;95636.19;5036949;28;20225;-70
2023/11/01 05:18:07;;;;;;;2.63;1.27;;;;;;;10.17;100.00;95628.22;5036539;28;20232;-70
2023/11/01 05:20:33;;;;;;;2.27;1.50;;;;;;;10.19;100.00;95629.66;5036463;28;20205;-70
2023/11/01 05:23:00;;;;;;;2.10;1.33;;;;;;;10.17;100.00;95634.31;5036392;28;20205;-70
2023/11/01 05:25:26;;;;;;;3.53;1.50;;;;;;;10.11;100.00;95629.00;5036037;28;20609;-70
2023/11/01 05:27:53;;;;;;;1.40;1.10;;;;;;;10.03;100.00;95629.94;5036167;28;20212;-70
2023/11/01 05:30:19;;;;;;;1.23;1.10;;;;;;;10.03;100.00;95637.84;5035941;28;20576;-70
2023/11/01 05:32:47;;;;;;;1.93;1.00;;;;;;;10.17;100.00;95622.97;5035687;28;20197;-70
2023/11/01 05:35:15;;;;;;;1.67;0.80;;;;;;;10.14;100.00;95621.53;5036232;28;20291;-70
2023/11/01 05:37:43;;;;;;;2.57;1.00;;;;;;;10.07;100.00;95612.75;5036467;28;20235;-70
2023/11/01 05:40:14;;;;;;;3.03;0.93;;;;;;;10.05;100.00;95609.50;5035289;28;21015;-70
2023/11/01 05:42:41;;;;;;;1.83;0.73;;;;;;;10.12;100.00;95607.75;5036158;28;20201;-70
2023/11/01 05:45:09;;;;;;;1.97;1.03;;;;;;;10.17;100.00;95604.53;5035977;28;20587;-70
2023/11/01 05:47:36;;;;;;;2.13;1.20;;;;;;;10.17;100.00;95607.16;5035735;28;20351;-70
2023/11/01 05:50:06;;;;;;;5.70;0.77;;;;;;;10.31;100.00;95604.47;5035906;28;20219;-70
2023/11/01 05:52:34;;;;;;;0.97;0.70;;;;;;;10.26;100.00;95606.84;5035690;28;20219;-70
2023/11/01 05:55:00;;;;;;;4.73;2.03;;;;;;;10.15;100.00;95606.56;5035411;28;20228;-70
2023/11/01 05:57:27;;;;;;;14.60;4.77;;;;;;;10.17;100.00;95609.78;5035447;28;20225;-70
2023/11/01 05:59:54;;;;;;;7.77;3.80;;;;;;;10.19;100.00;95607.81;5035301;28;20229;-70
2023/11/01 06:02:20;;;;;;;13.90;4.77;;;;;;;10.23;100.00;95615.13;5035465;28;20262;-69
2023/11/01 06:04:46;;;;;;;9.37;3.90;;;;;;;10.23;100.00;95612.47;5035409;28;20233;-70
2023/11/01 06:07:15;;;;;;;10.47;4.60;;;;;;;10.42;100.00;95609.19;5035214;28;20194;-70
2023/11/01 06:09:41;;;;;;;6.37;3.30;;;;;;;10.26;100.00;95612.13;5035687;28;20336;-70
2023/11/01 06:12:08;;;;;;;4.13;2.07;;;;;;;10.20;100.00;95609.44;5034607;28;20205;-70
2023/11/01 06:14:35;;;;;;;1.67;1.20;;;;;;;10.20;100.00;95607.59;5035347;28;20205;-70
2023/11/01 06:17:02;;;;;;;1.83;1.37;;;;;;;10.23;100.00;95607.22;5036344;28;20573;-70
2023/11/01 06:19:29;;;;;;;1.10;0.93;;;;;;;10.13;100.00;95603.28;5036262;28;20240;-70
2023/11/01 06:21:56;;;;;;;1.53;0.90;;;;;;;10.17;100.00;95609.78;5034637;28;20209;-70
2023/11/01 06:24:23;;;;;;;1.90;0.93;;;;;;;10.26;100.00;95617.38;5035890;28;20212;-69
2023/11/01 06:26:51;;;;;;;0.83;0.80;;;;;;;10.18;100.00;95614.88;5035895;28;20278;-69
2023/11/01 06:29:17;;;;;;;2.23;0.90;;;;;;;9.92;100.00;95619.88;5035486;28;20201;-69
2023/11/01 06:31:44;;;;;;;2.53;1.20;;;;;;;10.00;100.00;95622.41;5034691;28;21231;-70
2023/11/01 06:34:10;;;;;;;4.40;2.10;;;;;;;10.10;100.00;95611.56;5035774;28;20244;-69
2023/11/01 06:36:37;;;;;;;4.00;2.20;;;;;;;10.16;100.00;95616.09;5035645;28;20224;-69
2023/11/01 06:39:04;;;;;;;4.50;2.50;;;;;;;10.21;100.00;95621.56;5035155;28;20267;-70
2023/11/01 06:41:31;;;;;;;4.07;2.43;;;;;;;10.39;100.00;95614.88;5034960;28;20690;-69
2023/11/01 06:43:58;;;;;;;2.27;1.50;;;;;;;10.22;100.00;95618.78;5035648;28;20223;-70
2023/11/01 06:46:24;;;;;;;3.90;2.00;;;;;;;10.14;100.00;95618.09;5035646;28;20218;-70
2023/11/01 06:48:51;;;;;;;2.07;1.27;;;;;;;10.20;100.00;95618.13;5035159;28;20201;-70
2023/11/01 06:51:17;;;;;;;5.93;2.50;;;;;;;10.30;100.00;95623.91;5034924;28;20208;-70
2023/11/01 06:53:44;;;;;;;6.17;3.43;;;;;;;10.32;100.00;95621.06;5035068;28;20201;-70
2023/11/01 06:56:11;;;;;;;7.30;2.97;;;;;;;10.34;100.00;95611.97;5034871;28;20221;-69
2023/11/01 06:58:39;;;;;;;7.83;3.43;;;;;;;10.55;100.00;95615.41;5034999;28;20232;-70
2023/11/01 07:01:06;;;;;;;12.97;4.43;;;;;;;10.53;100.00;95608.69;5035509;28;20209;-70
2023/11/01 07:03:33;;;;;;;12.17;4.37;;;;;;;10.56;100.00;95616.19;5035107;28;20263;-70
2023/11/01 07:05:59;;;;;;;8.43;3.10;;;;;;;10.54;100.00;95608.50;5034114;28;20225;-70
2023/11/01 07:08:26;;;;;;;5.23;2.60;;;;;;;10.71;100.00;95609.03;5034895;28;20201;-70
2023/11/01 07:10:52;;;;;;;3.90;2.10;;;;;;;10.73;100.00;95610.47;5035311;28;20231;-70
2023/11/01 07:13:19;;;;;;;3.43;1.60;;;;;;;10.82;100.00;95611.09;5034868;28;20216;-70
2023/11/01 07:15:47;;;;;;;3.07;1.67;;;;;;;11.03;100.00;95612.66;5035414;28;21322;-70
2023/11/01 07:18:15;;;;;;;1.50;1.20;;;;;;;10.98;100.00;95616.88;5034820;28;20713;-70
2023/11/01 07:20:43;;;;;;;1.00;0.90;;;;;;;10.86;100.00;95610.53;5035547;28;20215;-70
2023/11/01 07:23:10;;;;;;;1.17;0.90;;;;;;;11.08;100.00;95612.88;5033375;28;20202;-70
2023/11/01 07:25:36;;;;;;;1.80;1.33;;;;;;;11.15;100.00;95608.47;5035136;28;20225;-70
2023/11/01 07:28:03;;;;;;;1.90;1.43;;;;;;;11.17;100.00;95608.25;5036879;28;20263;-69
2023/11/01 07:30:29;;;;;;;1.33;1.07;;;;;;;11.15;100.00;95600.56;5038311;28;20205;-70
2023/11/01 07:32:57;;;;;;;3.33;1.30;;;;;;;11.43;100.00;95603.94;5038282;28;20212;-70
2023/11/01 07:35:23;;;;;;;4.50;1.60;;;;;;;11.40;100.00;95599.03;5039060;28;20590;-70
2023/11/01 07:37:50;;;;;;;4.67;1.90;;;;;;;11.51;100.00;95595.88;5038709;28;20229;-70
2023/11/01 07:40:16;;;;;;;12.83;4.50;;;;;;;11.43;100.00;95588.09;5038435;28;20205;-70
2023/11/01 07:42:45;;;;;;;8.23;3.30;;;;;;;11.61;100.00;95588.41;5038520;28;20205;-70
2023/11/01 07:45:12;;;;;;;7.03;2.30;;;;;;;11.73;100.00;95582.31;5037807;28;20252;-70
2023/11/01 07:47:40;;;;;;;4.37;1.90;;;;;;;11.84;100.00;95571.19;5037892;28;20211;-70
2023/11/01 07:50:11;;;;;;;4.00;2.17;;;;;;;12.09;100.00;95579.34;5037076;28;20209;-70
2023/11/01 07:52:38;;;;;;;3.17;1.90;;;;;;;11.97;100.00;95581.75;5037291;28;20209;-70
2023/11/01 07:55:05;;;;;;;2.43;1.27;;;;;;;12.11;100.00;95578.13;5037880;28;20240;-72
2023/11/01 07:57:32;;;;;;;4.03;1.53;;;;;;;11.89;100.00;95574.03;5038802;28;20240;-70
2023/11/01 07:59:58;;;;;;;3.00;1.57;;;;;;;12.25;100.00;95574.47;5037548;28;20213;-70
2023/11/01 08:02:25;;;;;;;2.47;1.73;;;;;;;12.28;100.00;95569.59;5037761;28;20208;-70
2023/11/01 08:04:51;;;;;;;1.57;0.87;;;;;;;12.37;100.00;95568.38;5037201;28;20224;-70
2023/11/01 08:07:19;;;;;;;2.87;0.90;;;;;;;12.73;100.00;95563.47;5037592;28;20208;-70
2023/11/01 08:09:46;;;;;;;6.30;1.80;;;;;;;12.69;100.00;95551.69;5037946;28;20837;-70
2023/11/01 08:12:13;;;;;;;3.50;1.70;;;;;;;12.80;100.00;95551.03;5036902;28;20209;-70
2023/11/01 08:14:40;;;;;;;2.20;1.47;;;;;;;12.61;100.00;95557.16;5037653;28;20201;-70
2023/11/01 08:17:07;;;;;;;0.73;0.63;;;;;;;12.70;100.00;95558.56;5037877;28;20290;-70
2023/11/01 08:19:33;;;;;;;0.80;0.57;;;;;;;12.70;100.00;95557.78;5037542;28;20209;-70
2023/11/01 08:22:00;;;;;;;1.77;1.17;;;;;;;12.79;100.00;95557.34;5037235;28;20201;-70
2023/11/01 08:24:28;;;;;;;2.20;1.67;;;;;;;12.97;100.00;95561.00;5037471;28;20698;-70
2023/11/01 08:26:54;;;;;;;2.90;1.60;;;;;;;12.91;100.00;95559.19;5037812;28;20968;-70
2023/11/01 08:29:21;;;;;;;0.80;0.80;;;;;;;12.86;100.00;95560.81;5037089;28;20201;-70
2023/11/01 08:31:48;;;;;;;1.57;0.70;;;;;;;13.03;100.00;95554.06;5037716;28;20745;-70
2023/11/01 08:34:14;;;;;;;0.93;0.80;;;;;;;12.86;100.00;95558.19;5035938;28;20216;-70
2023/11/01 08:36:41;;;;;;;0.93;0.80;;;;;;;13.06;100.00;95558.91;5037971;28;20817;-71
2023/11/01 08:39:07;;;;;;;0.80;0.67;;;;;;;13.03;100.00;95559.34;5036457;28;20221;-70
2023/11/01 08:41:35;;;;;;;0.77;0.60;;;;;;;13.33;100.00;95552.50;5036473;28;20224;-70
2023/11/01 08:44:02;;;;;;;0.70;0.60;;;;;;;13.13;100.00;95551.78;5036433;28;21340;-70
2023/11/01 08:46:29;;;;;;;0.50;0.50;;;;;;;13.33;100.00;95555.16;5037355;28;20723;-70
2023/11/01 08:48:55;;;;;;;0.53;0.53;;;;;;;13.30;100.00;95560.88;5037416;28;20664;-70
2023/11/01 08:51:22;;;;;;;3.17;0.70;;;;;;;13.34;100.00;95562.09;5035395;28;20201;-70
2023/11/01 08:53:48;;;;;;;0.77;0.60;;;;;;;13.47;100.00;95558.38;5036885;28;20205;-70
2023/11/01 08:56:15;;;;;;;0.83;0.63;;;;;;;13.51;100.00;95543.69;5035593;28;20229;-70
2023/11/01 08:58:43;;;;;;;0.60;0.50;;;;;;;13.81;100.00;95543.91;5036490;28;20474;-70
2023/11/01 09:01:09;;;;;;;1.03;0.80;;;;;;;13.68;100.00;95534.25;5036659;28;20205;-70
2023/11/01 09:03:36;;;;;;;1.67;0.80;;;;;;;13.66;100.00;95536.28;5036185;28;20205;-70
2023/11/01 09:06:03;;;;;;;1.27;0.90;;;;;;;13.84;100.00;95536.38;5035806;28;20449;-70
2023/11/01 09:08:29;;;;;;;1.70;0.80;;;;;;;13.94;100.00;95539.38;5036758;28;20201;-70
2023/11/01 09:10:56;;;;;;;0.50;0.50;;;;;;;13.78;100.00;95542.50;5036988;28;20205;-70
2023/11/01 09:13:23;;;;;;;1.97;0.60;;;;;;;13.98;100.00;95541.34;5035436;28;20205;-70
2023/11/01 09:15:51;;;;;;;0.83;0.70;;;;;;;14.16;100.00;95527.41;5036767;28;20621;-70
2023/11/01 09:18:17;;;;;;;1.77;1.07;;;;;;;13.99;100.00;95523.66;5035941;28;20239;-71
2023/11/01 09:20:44;;;;;;;0.43;0.40;;;;;;;14.27;100.00;95530.19;5037279;28;20578;-70
2023/11/01 09:23:11;;;;;;;1.40;0.50;;;;;;;14.51;100.00;95525.88;5035478;28;20205;-70
2023/11/01 09:25:38;;;;;;;0.67;0.40;;;;;;;14.43;100.00;95523.50;5036881;28;20761;-70
2023/11/01 09:28:04;;;;;;;0.43;0.43;;;;;;;14.70;100.00;95531.81;5036303;28;20201;-71
2023/11/01 09:30:31;;;;;;;0.50;0.50;;;;;;;14.69;100.00;95524.88;5036144;28;20906;-70
2023/11/01 09:32:59;;;;;;;0.60;0.50;;;;;;;15.06;100.00;95526.53;5035701;28;21040;-70
2023/11/01 09:35:25;;;;;;;0.67;0.40;;;;;;;14.82;100.00;95524.75;5035799;28;20236;-71
2023/11/01 09:37:53;;;;;;;0.73;0.70;;;;;;;15.08;100.00;95516.50;5036315;28;20707;-70
2023/11/01 09:40:19;;;;;;;0.93;0.57;;;;;;;15.26;100.00;95516.53;5035995;28;20211;-70
2023/11/01 09:42:47;;;;;;;0.70;0.50;;;;;;;15.46;100.00;95514.44;5035516;28;20205;-70
2023/11/01 09:45:14;;;;;;;1.93;1.10;;;;;;;15.47;100.00;95514.22;5035216;28;20224;-70
2023/11/01 09:47:42;;;;;;;1.60;0.73;;;;;;;15.40;100.00;95518.81;5036782;28;20209;-70
2023/11/01 09:50:12;;;;;;;0.55;0.50;;;;;;;15.24;100.00;95520.47;5035680;28;20215;-70
2023/11/01 09:52:39;;;;;;;0.45;0.30;;;;;;;15.25;100.00;95522.88;5035253;28;20816;-70
2023/11/01 09:55:07;;;;;;;0.75;0.40;;;;;;;15.10;100.00;95511.00;5035323;28;20267;-70
2023/11/01 09:57:34;;;;;;;8.30;0.50;;;;;;;15.43;100.00;95512.25;5036035;28;21050;-71
2023/11/01 10:00:03;;;;;;;0.52;0.52;;;;;;;15.20;99.02;95512.09;5035676;28;20232;-71
2023/11/01 10:02:30;;;;;;;0.60;0.40;;;;;;;15.24;99.10;95503.47;5034637;28;20740;-70
2023/11/01 10:04:57;;;;;;;0.60;0.40;;;;;;;15.57;98.24;95503.06;5036539;28;20220;-71
2023/11/01 10:07:25;;;;;;;0.57;0.57;;;;;;;15.42;97.92;95511.41;5035210;28;20202;-70
2023/11/01 10:09:51;;;;;;;0.52;0.40;;;;;;;15.38;98.43;95507.59;5035850;28;20201;-70
2023/11/01 10:12:19;;;;;;;3.22;0.75;;;;;;;15.42;97.85;95497.34;5034392;28;20205;-71
2023/11/01 10:14:45;;;;;;;0.43;0.40;;;;;;;15.46;97.70;95493.19;5035673;28;20229;-70
2023/11/01 10:17:12;;;;;;;0.43;0.43;;;;;;;15.40;96.73;95494.09;5035539;28;20211;-70
2023/11/01 10:19:42;;;;;;;0.50;0.40;;;;;;;15.84;97.62;95483.88;5035615;28;20239;-70
2023/11/01 10:22:10;;;;;;;2.60;0.50;;;;;;;15.90;95.71;95481.13;5035234;28;20201;-70
2023/11/01 10:24:38;;;;;;;0.90;0.40;;;;;;;15.92;93.86;95472.91;5035226;28;20216;-70
2023/11/01 10:27:05;;;;;;;0.37;0.37;;;;;;;15.47;92.63;95477.03;5035864;28;20201;-70
2023/11/01 10:29:41;;;;;;;0.50;0.40;;;;;;;15.83;94.40;95465.50;5035070;28;20213;-71
2023/11/01 10:32:10;;;;;;;0.57;0.40;;;;;;;16.02;93.30;95470.50;5035602;28;20205;-70
2023/11/01 10:34:37;;;;;;;0.77;0.32;;;;;;;16.09;94.43;95466.72;5034966;28;20217;-70
2023/11/01 10:37:04;;;;;;;1.00;0.43;;;;;;;16.25;96.52;95462.56;5035896;28;20209;-70
2023/11/01 10:39:33;;;;;;;0.93;0.50;;;;;;;16.38;92.58;95465.88;5035017;28;20225;-70
2023/11/01 10:42:03;;;;;;;0.30;0.30;;;;;;;16.34;92.48;95463.88;5035104;28;20201;-70
2023/11/01 10:44:30;;;;;;;0.40;0.40;;;;;;;16.09;93.57;95447.31;5034967;28;20215;-70
2023/11/01 10:46:58;;;;;;;1.17;0.45;;;;;;;16.33;93.68;95447.13;5035730;28;20215;-70
2023/11/01 10:49:26;;;;;;;2.88;0.50;;;;;;;16.35;91.52;95454.88;5034791;28;20687;-70
2023/11/01 10:51:54;;;;;;;0.43;0.38;;;;;;;16.57;93.29;95446.88;5035392;28;20209;-70
2023/11/01 10:54:21;;;;;;;0.80;0.55;;;;;;;16.55;87.48;95442.84;5034388;28;20731;-71
2023/11/01 10:56:49;;;;;;;0.60;0.57;;;;;;;16.59;86.37;95442.13;5034857;28;20227;-70
2023/11/01 10:59:26;;;;;;;0.43;0.30;;;;;;;16.70;90.14;95437.81;5035002;28;20971;-70
2023/11/01 11:02:00;;;;;;;0.50;0.50;;;;;;;16.60;91.28;95432.31;5035829;28;20204;-70
2023/11/01 11:04:31;;;;;;;0.40;0.40;;;;;;;16.46;91.85;95438.91;5038145;28;20356;-70
2023/11/01 11:07:04;;;;;;;6.30;1.55;;;;;;;16.49;94.63;95430.47;5039435;28;20213;-70
2023/11/01 11:09:30;;;;;;;1.02;0.55;;;;;;;16.44;94.00;95414.38;5039244;28;20212;-70
2023/11/01 11:12:15;;;;;;;2.85;0.60;;;;;;;16.57;89.98;95406.16;5038546;28;20211;-70
2023/11/01 11:14:45;;;;;;;0.32;0.32;;;;;;;16.41;91.99;95409.53;5038249;28;20219;-70
2023/11/01 11:17:14;;;;;;;1.52;0.85;;;;;;;16.52;92.05;95406.03;5038705;28;20292;-70
2023/11/01 11:20:13;;;;;;;3.38;0.47;;;;;;;16.86;90.46;95390.03;5038952;28;20225;-70
2023/11/01 11:23:11;;;;;;;0.45;0.40;;;;;;;16.94;88.88;95388.84;5039040;28;20457;-70
2023/11/01 11:25:59;;;;;;;0.63;0.50;;;;;;;16.65;92.26;95395.19;5034153;28;20225;-70
2023/11/01 11:28:44;;;;;;;0.77;0.40;;;;;;;16.86;87.04;95381.25;5033727;28;20212;-70